Strona główna
METAR-TAF:

METAR-TAF

Lotnisko :

Port lotniczy Wagadugu

Wagadugu, Burkina Faso

Szerokość geograficzna: 12-21N, Długość geograficzna: 001-31W, wysokość: 316 m

Aktualna obserwacja pogody

Raport powstał 3 godziny i 19 minut temu, godzina 03:00 UTC
Wiatr 2 kt od północny wschód
Temperatura 19°C
Wilgotność 43%
Ciśnienie 1016 hPa
Widzialność 10 km lub więcej
Brak chmur poniżej 1500 m i brak chmur cumulonimbus

METAR: DFFD 100300Z 04002KT CAVOK 19/06 Q1016 NOSIG

czas: 06:19 (06:19 UTC)

Prognoza

Raport powstał 1 godzina i 19 minut temu, godzina 05:00 UTC
Prognoza ważna od 10 godzina 06 UTC do 11 godzina 12 UTC
Wiatr 8 kt od wschodnio-północny wschód
Widzialność: 8000 m
Przejściowo
od 10 godzina 06 UTC do 10 godzina 10 UTC
Widzialność: 2500 m
zmętnienie
Przejściowo
od 11 godzina 06 UTC do 11 godzina 10 UTC
Widzialność: 3500 m
zmętnienie

TAF: DFFD 100500Z 1006/1112 06008KT 8000 NSC TEMPO 1006/1010 2500 HZ TEMPO 1106/1110 3500 HZ

Obserwacja i prognoza pogody dla ponad 4000 lotnisk (raport METAR i TAF).

Dostępne stacje oznaczono żółtymi i czerwonymi punktami na mapie.

Najedź kursorem aby zobaczyć nazwę stacji.

Kliknij aby zobaczyć obserwacje i prognozy pogody.

Aby zmienić mapę: kliknij na zielony przycisk z czarnym krzyżykiem, aby powiększyć; na zielony przycisk z myślnikiem, aby pomniejszyć; na zielone strzałki, aby przejść do map sąsiednich.


METAR-TAF: